sensor_id;sensor_type;location;lat;lon;timestamp;P1;durP1;ratioP1;P2;durP2;ratioP2
58083;SDS011;43882;51.550;11.858;2022-07-01T00:02:12;28.08;;;15.68;;
58083;SDS011;43882;51.550;11.858;2022-07-01T00:04:38;26.05;;;15.90;;
58083;SDS011;43882;51.550;11.858;2022-07-01T00:07:04;28.95;;;16.42;;
58083;SDS011;43882;51.550;11.858;2022-07-01T00:09:30;26.40;;;15.20;;
58083;SDS011;43882;51.550;11.858;2022-07-01T00:11:56;27.67;;;15.85;;
58083;SDS011;43882;51.550;11.858;2022-07-01T00:14:22;26.15;;;14.55;;
58083;SDS011;43882;51.550;11.858;2022-07-01T00:16:49;25.83;;;15.63;;
58083;SDS011;43882;51.550;11.858;2022-07-01T00:19:15;27.20;;;14.60;;
58083;SDS011;43882;51.550;11.858;2022-07-01T00:21:41;27.13;;;15.35;;
58083;SDS011;43882;51.550;11.858;2022-07-01T00:24:07;27.27;;;15.27;;
58083;SDS011;43882;51.550;11.858;2022-07-01T00:26:33;27.13;;;15.40;;
58083;SDS011;43882;51.550;11.858;2022-07-01T00:28:59;26.70;;;15.50;;
58083;SDS011;43882;51.550;11.858;2022-07-01T00:31:25;32.35;;;16.25;;
58083;SDS011;43882;51.550;11.858;2022-07-01T00:33:51;29.00;;;16.20;;
58083;SDS011;43882;51.550;11.858;2022-07-01T00:36:17;27.25;;;15.32;;
58083;SDS011;43882;51.550;11.858;2022-07-01T00:38:42;28.75;;;15.35;;
58083;SDS011;43882;51.550;11.858;2022-07-01T00:41:08;26.52;;;15.15;;
58083;SDS011;43882;51.550;11.858;2022-07-01T00:43:35;24.63;;;14.05;;
58083;SDS011;43882;51.550;11.858;2022-07-01T00:46:03;27.00;;;15.15;;
58083;SDS011;43882;51.550;11.858;2022-07-01T00:48:29;27.80;;;14.77;;
58083;SDS011;43882;51.550;11.858;2022-07-01T00:50:57;25.75;;;15.93;;
58083;SDS011;43882;51.550;11.858;2022-07-01T00:53:23;27.42;;;15.60;;
58083;SDS011;43882;51.550;11.858;2022-07-01T00:55:49;27.25;;;15.73;;
58083;SDS011;43882;51.550;11.858;2022-07-01T00:58:15;26.25;;;15.68;;
58083;SDS011;43882;51.550;11.858;2022-07-01T01:00:42;26.70;;;16.25;;
58083;SDS011;43882;51.550;11.858;2022-07-01T01:03:08;28.52;;;16.02;;
58083;SDS011;43882;51.550;11.858;2022-07-01T01:05:36;28.30;;;16.70;;
58083;SDS011;43882;51.550;11.858;2022-07-01T01:08:02;27.10;;;16.73;;
58083;SDS011;43882;51.550;11.858;2022-07-01T01:10:28;24.85;;;15.38;;
58083;SDS011;43882;51.550;11.858;2022-07-01T01:12:56;27.08;;;16.38;;
58083;SDS011;43882;51.550;11.858;2022-07-01T01:15:22;27.92;;;15.23;;
58083;SDS011;43882;51.550;11.858;2022-07-01T01:17:48;27.02;;;15.75;;
58083;SDS011;43882;51.550;11.858;2022-07-01T01:20:17;27.30;;;15.93;;
58083;SDS011;43882;51.550;11.858;2022-07-01T01:22:44;27.10;;;15.98;;
58083;SDS011;43882;51.550;11.858;2022-07-01T01:25:10;28.98;;;15.98;;
58083;SDS011;43882;51.550;11.858;2022-07-01T01:27:36;27.02;;;15.25;;
58083;SDS011;43882;51.550;11.858;2022-07-01T01:30:03;26.90;;;16.10;;
58083;SDS011;43882;51.550;11.858;2022-07-01T01:32:30;28.00;;;15.05;;
58083;SDS011;43882;51.550;11.858;2022-07-01T01:34:56;26.10;;;16.38;;
58083;SDS011;43882;51.550;11.858;2022-07-01T01:37:22;27.75;;;16.98;;
58083;SDS011;43882;51.550;11.858;2022-07-01T01:39:47;28.85;;;16.33;;
58083;SDS011;43882;51.550;11.858;2022-07-01T01:42:13;27.23;;;16.77;;
58083;SDS011;43882;51.550;11.858;2022-07-01T01:44:39;29.42;;;17.25;;
58083;SDS011;43882;51.550;11.858;2022-07-01T01:47:05;28.30;;;16.20;;
58083;SDS011;43882;51.550;11.858;2022-07-01T01:49:31;28.65;;;16.58;;
58083;SDS011;43882;51.550;11.858;2022-07-01T01:51:58;27.73;;;16.50;;
58083;SDS011;43882;51.550;11.858;2022-07-01T01:54:24;29.48;;;16.45;;
58083;SDS011;43882;51.550;11.858;2022-07-01T01:56:50;27.60;;;16.30;;
58083;SDS011;43882;51.550;11.858;2022-07-01T01:59:16;29.30;;;16.88;;
58083;SDS011;43882;51.550;11.858;2022-07-01T02:01:42;32.08;;;17.98;;
58083;SDS011;43882;51.550;11.858;2022-07-01T02:04:08;27.25;;;17.17;;
58083;SDS011;43882;51.550;11.858;2022-07-01T02:06:34;28.35;;;17.42;;
58083;SDS011;43882;51.550;11.858;2022-07-01T02:09:00;30.60;;;17.67;;
58083;SDS011;43882;51.550;11.858;2022-07-01T02:11:26;31.05;;;17.90;;
58083;SDS011;43882;51.550;11.858;2022-07-01T02:13:52;31.13;;;18.42;;
58083;SDS011;43882;51.550;11.858;2022-07-01T02:16:18;33.20;;;18.40;;
58083;SDS011;43882;51.550;11.858;2022-07-01T02:18:44;30.05;;;17.65;;
58083;SDS011;43882;51.550;11.858;2022-07-01T02:21:10;31.65;;;18.60;;
58083;SDS011;43882;51.550;11.858;2022-07-01T02:23:36;32.45;;;18.60;;
58083;SDS011;43882;51.550;11.858;2022-07-01T02:26:02;30.52;;;18.48;;
58083;SDS011;43882;51.550;11.858;2022-07-01T02:28:28;31.27;;;17.35;;
58083;SDS011;43882;51.550;11.858;2022-07-01T02:30:54;31.70;;;18.85;;
58083;SDS011;43882;51.550;11.858;2022-07-01T02:33:20;32.63;;;19.95;;
58083;SDS011;43882;51.550;11.858;2022-07-01T02:35:47;33.92;;;21.00;;
58083;SDS011;43882;51.550;11.858;2022-07-01T02:38:13;36.67;;;21.40;;
58083;SDS011;43882;51.550;11.858;2022-07-01T02:40:39;30.65;;;19.17;;
58083;SDS011;43882;51.550;11.858;2022-07-01T02:43:06;31.15;;;19.25;;
58083;SDS011;43882;51.550;11.858;2022-07-01T02:45:32;33.50;;;19.83;;
58083;SDS011;43882;51.550;11.858;2022-07-01T02:47:58;32.95;;;20.35;;
58083;SDS011;43882;51.550;11.858;2022-07-01T02:50:27;34.63;;;20.30;;
58083;SDS011;43882;51.550;11.858;2022-07-01T02:52:53;34.63;;;20.83;;
58083;SDS011;43882;51.550;11.858;2022-07-01T02:55:19;35.45;;;20.52;;
58083;SDS011;43882;51.550;11.858;2022-07-01T02:57:45;33.13;;;19.63;;
58083;SDS011;43882;51.550;11.858;2022-07-01T03:00:12;35.58;;;21.00;;
58083;SDS011;43882;51.550;11.858;2022-07-01T03:02:38;35.15;;;20.95;;
58083;SDS011;43882;51.550;11.858;2022-07-01T03:05:04;33.70;;;20.85;;
58083;SDS011;43882;51.550;11.858;2022-07-01T03:07:30;34.42;;;20.10;;
58083;SDS011;43882;51.550;11.858;2022-07-01T03:09:56;32.70;;;19.90;;
58083;SDS011;43882;51.550;11.858;2022-07-01T03:12:22;32.08;;;19.38;;
58083;SDS011;43882;51.550;11.858;2022-07-01T03:17:24;30.80;;;18.38;;
58083;SDS011;43882;51.550;11.858;2022-07-01T03:19:50;30.90;;;17.92;;
58083;SDS011;43882;51.550;11.858;2022-07-01T03:22:17;29.67;;;18.55;;
58083;SDS011;43882;51.550;11.858;2022-07-01T03:24:43;29.05;;;17.08;;
58083;SDS011;43882;51.550;11.858;2022-07-01T03:27:09;28.00;;;15.88;;
58083;SDS011;43882;51.550;11.858;2022-07-01T03:29:34;25.92;;;14.55;;
58083;SDS011;43882;51.550;11.858;2022-07-01T03:32:01;26.25;;;15.13;;
58083;SDS011;43882;51.550;11.858;2022-07-01T03:34:27;28.08;;;14.48;;
58083;SDS011;43882;51.550;11.858;2022-07-01T03:36:53;27.75;;;15.18;;
58083;SDS011;43882;51.550;11.858;2022-07-01T03:39:19;30.90;;;15.35;;
58083;SDS011;43882;51.550;11.858;2022-07-01T03:41:45;28.27;;;13.95;;
58083;SDS011;43882;51.550;11.858;2022-07-01T03:44:10;27.00;;;13.95;;
58083;SDS011;43882;51.550;11.858;2022-07-01T03:46:36;26.40;;;13.77;;
58083;SDS011;43882;51.550;11.858;2022-07-01T03:49:02;29.80;;;14.80;;
58083;SDS011;43882;51.550;11.858;2022-07-01T03:51:33;23.58;;;12.48;;
58083;SDS011;43882;51.550;11.858;2022-07-01T03:53:59;21.77;;;9.95;;
58083;SDS011;43882;51.550;11.858;2022-07-01T03:56:43;20.67;;;9.00;;
58083;SDS011;43882;51.550;11.858;2022-07-01T03:59:09;19.45;;;8.98;;
58083;SDS011;43882;51.550;11.858;2022-07-01T04:01:35;20.60;;;9.63;;
58083;SDS011;43882;51.550;11.858;2022-07-01T04:04:01;19.92;;;9.77;;
58083;SDS011;43882;51.550;11.858;2022-07-01T04:06:27;20.38;;;10.45;;
58083;SDS011;43882;51.550;11.858;2022-07-01T04:08:53;23.33;;;12.38;;
58083;SDS011;43882;51.550;11.858;2022-07-01T04:11:20;22.95;;;12.70;;
58083;SDS011;43882;51.550;11.858;2022-07-01T04:13:46;22.92;;;12.15;;
58083;SDS011;43882;51.550;11.858;2022-07-01T04:16:18;24.60;;;13.20;;
58083;SDS011;43882;51.550;11.858;2022-07-01T04:18:48;24.02;;;13.40;;
58083;SDS011;43882;51.550;11.858;2022-07-01T04:21:14;23.30;;;13.80;;
58083;SDS011;43882;51.550;11.858;2022-07-01T04:23:58;23.60;;;14.30;;
58083;SDS011;43882;51.550;11.858;2022-07-01T04:26:24;24.60;;;14.48;;
58083;SDS011;43882;51.550;11.858;2022-07-01T04:28:51;25.25;;;14.10;;
58083;SDS011;43882;51.550;11.858;2022-07-01T04:31:17;25.55;;;14.23;;
58083;SDS011;43882;51.550;11.858;2022-07-01T04:33:43;25.98;;;14.70;;
58083;SDS011;43882;51.550;11.858;2022-07-01T04:36:09;26.00;;;15.15;;
58083;SDS011;43882;51.550;11.858;2022-07-01T04:38:35;26.75;;;15.10;;
58083;SDS011;43882;51.550;11.858;2022-07-01T04:41:01;25.60;;;15.65;;
58083;SDS011;43882;51.550;11.858;2022-07-01T04:43:46;26.23;;;16.48;;
58083;SDS011;43882;51.550;11.858;2022-07-01T04:46:12;27.33;;;16.88;;
58083;SDS011;43882;51.550;11.858;2022-07-01T04:48:38;30.10;;;17.60;;
58083;SDS011;43882;51.550;11.858;2022-07-01T04:51:05;26.88;;;16.13;;
58083;SDS011;43882;51.550;11.858;2022-07-01T04:53:31;26.13;;;16.25;;
58083;SDS011;43882;51.550;11.858;2022-07-01T04:55:57;25.75;;;16.05;;
58083;SDS011;43882;51.550;11.858;2022-07-01T04:58:23;27.23;;;16.40;;
58083;SDS011;43882;51.550;11.858;2022-07-01T05:00:49;28.02;;;17.50;;
58083;SDS011;43882;51.550;11.858;2022-07-01T05:03:15;26.55;;;16.67;;
58083;SDS011;43882;51.550;11.858;2022-07-01T05:05:41;28.05;;;17.30;;
58083;SDS011;43882;51.550;11.858;2022-07-01T05:08:07;28.75;;;18.38;;
58083;SDS011;43882;51.550;11.858;2022-07-01T05:10:33;28.92;;;17.10;;
58083;SDS011;43882;51.550;11.858;2022-07-01T05:12:59;28.77;;;18.52;;
58083;SDS011;43882;51.550;11.858;2022-07-01T05:15:25;27.27;;;17.77;;
58083;SDS011;43882;51.550;11.858;2022-07-01T05:17:51;28.33;;;17.52;;
58083;SDS011;43882;51.550;11.858;2022-07-01T05:20:36;28.48;;;17.05;;
58083;SDS011;43882;51.550;11.858;2022-07-01T05:23:20;26.90;;;16.80;;
58083;SDS011;43882;51.550;11.858;2022-07-01T05:25:46;28.15;;;17.15;;
58083;SDS011;43882;51.550;11.858;2022-07-01T05:28:13;29.10;;;17.70;;
58083;SDS011;43882;51.550;11.858;2022-07-01T05:30:39;28.38;;;15.68;;
58083;SDS011;43882;51.550;11.858;2022-07-01T05:33:05;27.92;;;16.35;;
58083;SDS011;43882;51.550;11.858;2022-07-01T05:35:31;27.80;;;16.50;;
58083;SDS011;43882;51.550;11.858;2022-07-01T05:37:56;27.67;;;17.40;;
58083;SDS011;43882;51.550;11.858;2022-07-01T05:40:23;27.00;;;15.55;;
58083;SDS011;43882;51.550;11.858;2022-07-01T05:42:50;25.85;;;14.77;;
58083;SDS011;43882;51.550;11.858;2022-07-01T05:45:16;26.25;;;14.35;;
58083;SDS011;43882;51.550;11.858;2022-07-01T05:47:42;24.40;;;13.60;;
58083;SDS011;43882;51.550;11.858;2022-07-01T05:50:08;26.52;;;14.90;;
58083;SDS011;43882;51.550;11.858;2022-07-01T05:52:34;25.63;;;14.15;;
58083;SDS011;43882;51.550;11.858;2022-07-01T05:55:00;28.48;;;15.88;;
58083;SDS011;43882;51.550;11.858;2022-07-01T05:57:26;24.67;;;13.32;;
58083;SDS011;43882;51.550;11.858;2022-07-01T05:59:52;21.45;;;11.65;;
58083;SDS011;43882;51.550;11.858;2022-07-01T06:02:18;21.63;;;10.50;;
58083;SDS011;43882;51.550;11.858;2022-07-01T06:04:44;20.10;;;9.70;;
58083;SDS011;43882;51.550;11.858;2022-07-01T06:07:10;22.40;;;10.68;;
58083;SDS011;43882;51.550;11.858;2022-07-01T06:09:36;20.90;;;9.90;;
58083;SDS011;43882;51.550;11.858;2022-07-01T06:12:03;19.45;;;9.40;;
58083;SDS011;43882;51.550;11.858;2022-07-01T06:14:29;18.98;;;8.48;;
58083;SDS011;43882;51.550;11.858;2022-07-01T06:16:55;20.35;;;8.57;;
58083;SDS011;43882;51.550;11.858;2022-07-01T06:19:21;18.63;;;8.23;;
58083;SDS011;43882;51.550;11.858;2022-07-01T06:21:47;19.02;;;7.43;;
58083;SDS011;43882;51.550;11.858;2022-07-01T06:24:13;17.25;;;7.30;;
58083;SDS011;43882;51.550;11.858;2022-07-01T06:26:39;17.42;;;6.40;;
58083;SDS011;43882;51.550;11.858;2022-07-01T06:29:05;16.10;;;5.97;;
58083;SDS011;43882;51.550;11.858;2022-07-01T06:31:32;14.73;;;5.22;;
58083;SDS011;43882;51.550;11.858;2022-07-01T06:33:58;13.57;;;4.50;;
58083;SDS011;43882;51.550;11.858;2022-07-01T06:36:25;12.73;;;3.58;;
58083;SDS011;43882;51.550;11.858;2022-07-01T06:38:51;12.50;;;3.58;;
58083;SDS011;43882;51.550;11.858;2022-07-01T06:41:17;11.80;;;3.50;;
58083;SDS011;43882;51.550;11.858;2022-07-01T06:43:52;9.93;;;2.95;;
58083;SDS011;43882;51.550;11.858;2022-07-01T06:46:18;9.02;;;2.60;;
58083;SDS011;43882;51.550;11.858;2022-07-01T06:48:44;7.10;;;2.50;;
58083;SDS011;43882;51.550;11.858;2022-07-01T06:51:10;5.88;;;2.25;;
58083;SDS011;43882;51.550;11.858;2022-07-01T06:53:36;6.68;;;2.30;;
58083;SDS011;43882;51.550;11.858;2022-07-01T06:56:02;8.05;;;2.45;;
58083;SDS011;43882;51.550;11.858;2022-07-01T06:58:28;7.90;;;2.60;;
58083;SDS011;43882;51.550;11.858;2022-07-01T07:00:54;10.70;;;2.80;;
58083;SDS011;43882;51.550;11.858;2022-07-01T07:03:20;7.22;;;2.50;;
58083;SDS011;43882;51.550;11.858;2022-07-01T07:05:46;9.32;;;2.60;;
58083;SDS011;43882;51.550;11.858;2022-07-01T07:08:12;7.13;;;2.38;;
58083;SDS011;43882;51.550;11.858;2022-07-01T07:10:38;9.40;;;2.78;;
58083;SDS011;43882;51.550;11.858;2022-07-01T07:13:04;8.77;;;2.80;;
58083;SDS011;43882;51.550;11.858;2022-07-01T07:15:30;10.35;;;2.65;;
58083;SDS011;43882;51.550;11.858;2022-07-01T07:17:56;9.80;;;2.63;;
58083;SDS011;43882;51.550;11.858;2022-07-01T07:20:23;8.20;;;2.60;;
58083;SDS011;43882;51.550;11.858;2022-07-01T07:22:49;10.07;;;2.90;;
58083;SDS011;43882;51.550;11.858;2022-07-01T07:25:15;10.55;;;2.90;;
58083;SDS011;43882;51.550;11.858;2022-07-01T07:27:41;11.68;;;3.10;;
58083;SDS011;43882;51.550;11.858;2022-07-01T07:30:11;11.50;;;3.00;;
58083;SDS011;43882;51.550;11.858;2022-07-01T07:32:37;10.68;;;2.92;;
58083;SDS011;43882;51.550;11.858;2022-07-01T07:35:03;10.70;;;2.80;;
58083;SDS011;43882;51.550;11.858;2022-07-01T07:37:29;11.00;;;2.90;;
58083;SDS011;43882;51.550;11.858;2022-07-01T07:39:57;10.70;;;2.80;;
58083;SDS011;43882;51.550;11.858;2022-07-01T07:42:23;11.90;;;3.10;;
58083;SDS011;43882;51.550;11.858;2022-07-01T07:44:50;9.48;;;2.75;;
58083;SDS011;43882;51.550;11.858;2022-07-01T07:47:16;11.38;;;3.45;;
58083;SDS011;43882;51.550;11.858;2022-07-01T07:49:42;10.88;;;3.10;;
58083;SDS011;43882;51.550;11.858;2022-07-01T07:52:08;10.88;;;3.22;;
58083;SDS011;43882;51.550;11.858;2022-07-01T07:54:34;11.18;;;3.25;;
58083;SDS011;43882;51.550;11.858;2022-07-01T07:57:00;12.93;;;3.20;;
58083;SDS011;43882;51.550;11.858;2022-07-01T07:59:26;10.98;;;3.10;;
58083;SDS011;43882;51.550;11.858;2022-07-01T08:01:52;10.95;;;3.25;;
58083;SDS011;43882;51.550;11.858;2022-07-01T08:04:18;11.15;;;3.40;;
58083;SDS011;43882;51.550;11.858;2022-07-01T08:06:44;11.35;;;3.30;;
58083;SDS011;43882;51.550;11.858;2022-07-01T08:09:10;13.73;;;3.47;;
58083;SDS011;43882;51.550;11.858;2022-07-01T08:11:36;13.20;;;3.80;;
58083;SDS011;43882;51.550;11.858;2022-07-01T08:14:02;14.52;;;3.85;;
58083;SDS011;43882;51.550;11.858;2022-07-01T08:16:28;20.13;;;7.63;;
58083;SDS011;43882;51.550;11.858;2022-07-01T08:18:54;22.83;;;11.15;;
58083;SDS011;43882;51.550;11.858;2022-07-01T08:21:20;22.98;;;10.77;;
58083;SDS011;43882;51.550;11.858;2022-07-01T08:23:46;22.30;;;10.80;;
58083;SDS011;43882;51.550;11.858;2022-07-01T08:26:13;22.20;;;11.00;;
58083;SDS011;43882;51.550;11.858;2022-07-01T08:28:41;22.17;;;10.45;;
58083;SDS011;43882;51.550;11.858;2022-07-01T08:31:07;22.67;;;10.57;;
58083;SDS011;43882;51.550;11.858;2022-07-01T08:33:33;22.98;;;10.88;;
58083;SDS011;43882;51.550;11.858;2022-07-01T08:35:59;23.95;;;10.45;;
58083;SDS011;43882;51.550;11.858;2022-07-01T08:38:25;21.13;;;10.52;;
58083;SDS011;43882;51.550;11.858;2022-07-01T08:40:51;22.45;;;11.18;;
58083;SDS011;43882;51.550;11.858;2022-07-01T08:43:17;22.08;;;10.75;;
58083;SDS011;43882;51.550;11.858;2022-07-01T08:45:43;21.67;;;10.23;;
58083;SDS011;43882;51.550;11.858;2022-07-01T08:48:09;22.42;;;10.68;;
58083;SDS011;43882;51.550;11.858;2022-07-01T08:50:36;23.35;;;10.57;;
58083;SDS011;43882;51.550;11.858;2022-07-01T08:53:03;24.45;;;11.13;;
58083;SDS011;43882;51.550;11.858;2022-07-01T08:55:29;23.05;;;10.85;;
58083;SDS011;43882;51.550;11.858;2022-07-01T08:57:56;22.90;;;10.43;;
58083;SDS011;43882;51.550;11.858;2022-07-01T09:00:28;24.08;;;11.40;;
58083;SDS011;43882;51.550;11.858;2022-07-01T09:02:55;25.27;;;11.35;;
58083;SDS011;43882;51.550;11.858;2022-07-01T09:05:22;24.92;;;11.48;;
58083;SDS011;43882;51.550;11.858;2022-07-01T09:07:48;24.50;;;11.35;;
58083;SDS011;43882;51.550;11.858;2022-07-01T09:10:15;24.80;;;11.35;;
58083;SDS011;43882;51.550;11.858;2022-07-01T09:12:43;23.08;;;11.23;;
58083;SDS011;43882;51.550;11.858;2022-07-01T09:18:14;19.00;;;7.95;;
58083;SDS011;43882;51.550;11.858;2022-07-01T09:20:42;17.70;;;6.75;;
58083;SDS011;43882;51.550;11.858;2022-07-01T09:23:12;16.38;;;6.15;;
58083;SDS011;43882;51.550;11.858;2022-07-01T09:25:39;16.40;;;5.22;;
58083;SDS011;43882;51.550;11.858;2022-07-01T09:28:21;15.98;;;5.53;;
58083;SDS011;43882;51.550;11.858;2022-07-01T09:30:48;15.98;;;5.03;;
58083;SDS011;43882;51.550;11.858;2022-07-01T09:33:16;13.43;;;4.18;;
58083;SDS011;43882;51.550;11.858;2022-07-01T09:35:43;15.10;;;4.60;;
58083;SDS011;43882;51.550;11.858;2022-07-01T09:38:13;14.73;;;4.03;;
58083;SDS011;43882;51.550;11.858;2022-07-01T09:43:15;13.05;;;3.50;;
58083;SDS011;43882;51.550;11.858;2022-07-01T09:48:23;14.65;;;4.20;;
58083;SDS011;43882;51.550;11.858;2022-07-01T09:50:50;12.60;;;4.00;;
58083;SDS011;43882;51.550;11.858;2022-07-01T09:53:16;13.82;;;4.05;;
58083;SDS011;43882;51.550;11.858;2022-07-01T09:55:42;15.90;;;4.57;;
58083;SDS011;43882;51.550;11.858;2022-07-01T09:58:09;14.57;;;4.43;;
58083;SDS011;43882;51.550;11.858;2022-07-01T10:00:35;16.55;;;5.00;;
58083;SDS011;43882;51.550;11.858;2022-07-01T10:03:02;17.75;;;4.90;;
58083;SDS011;43882;51.550;11.858;2022-07-01T10:05:29;15.43;;;4.88;;
58083;SDS011;43882;51.550;11.858;2022-07-01T10:10:51;16.80;;;5.22;;
58083;SDS011;43882;51.550;11.858;2022-07-01T10:13:26;16.47;;;5.50;;
58083;SDS011;43882;51.550;11.858;2022-07-01T10:15:53;16.63;;;5.68;;
58083;SDS011;43882;51.550;11.858;2022-07-01T10:18:22;18.27;;;6.00;;
58083;SDS011;43882;51.550;11.858;2022-07-01T10:20:49;17.45;;;6.50;;
58083;SDS011;43882;51.550;11.858;2022-07-01T10:23:15;17.83;;;6.88;;
58083;SDS011;43882;51.550;11.858;2022-07-01T10:25:45;19.60;;;7.63;;
58083;SDS011;43882;51.550;11.858;2022-07-01T10:30:51;17.92;;;6.68;;
58083;SDS011;43882;51.550;11.858;2022-07-01T10:36:11;17.63;;;5.97;;
58083;SDS011;43882;51.550;11.858;2022-07-01T10:41:22;17.05;;;5.53;;
58083;SDS011;43882;51.550;11.858;2022-07-01T10:43:48;16.60;;;5.53;;
58083;SDS011;43882;51.550;11.858;2022-07-01T10:49:16;15.40;;;4.57;;
58083;SDS011;43882;51.550;11.858;2022-07-01T10:51:53;14.63;;;4.68;;
58083;SDS011;43882;51.550;11.858;2022-07-01T10:59:51;15.15;;;4.45;;
58083;SDS011;43882;51.550;11.858;2022-07-01T11:02:19;14.35;;;3.85;;
58083;SDS011;43882;51.550;11.858;2022-07-01T11:04:45;14.25;;;3.92;;
58083;SDS011;43882;51.550;11.858;2022-07-01T11:07:11;14.30;;;4.00;;
58083;SDS011;43882;51.550;11.858;2022-07-01T11:09:37;13.70;;;3.83;;
58083;SDS011;43882;51.550;11.858;2022-07-01T11:12:04;16.20;;;4.57;;
58083;SDS011;43882;51.550;11.858;2022-07-01T11:14:35;14.23;;;4.63;;
58083;SDS011;43882;51.550;11.858;2022-07-01T11:17:02;14.50;;;3.95;;
58083;SDS011;43882;51.550;11.858;2022-07-01T11:19:28;13.55;;;4.03;;
58083;SDS011;43882;51.550;11.858;2022-07-01T11:21:54;14.70;;;4.35;;
58083;SDS011;43882;51.550;11.858;2022-07-01T11:24:21;14.38;;;4.15;;
58083;SDS011;43882;51.550;11.858;2022-07-01T11:26:47;15.02;;;5.20;;
58083;SDS011;43882;51.550;11.858;2022-07-01T11:29:14;14.75;;;4.78;;
58083;SDS011;43882;51.550;11.858;2022-07-01T11:31:41;15.45;;;4.80;;
58083;SDS011;43882;51.550;11.858;2022-07-01T11:34:07;15.45;;;5.10;;
58083;SDS011;43882;51.550;11.858;2022-07-01T11:36:33;13.82;;;4.47;;
58083;SDS011;43882;51.550;11.858;2022-07-01T11:39:18;14.27;;;4.20;;
58083;SDS011;43882;51.550;11.858;2022-07-01T11:41:47;13.98;;;4.18;;
58083;SDS011;43882;51.550;11.858;2022-07-01T11:44:13;14.77;;;4.50;;
58083;SDS011;43882;51.550;11.858;2022-07-01T11:46:39;14.00;;;4.13;;
58083;SDS011;43882;51.550;11.858;2022-07-01T11:49:11;14.27;;;4.45;;
58083;SDS011;43882;51.550;11.858;2022-07-01T11:54:04;14.77;;;4.68;;
58083;SDS011;43882;51.550;11.858;2022-07-01T11:56:31;15.43;;;4.50;;
58083;SDS011;43882;51.550;11.858;2022-07-01T11:58:57;14.88;;;4.78;;
58083;SDS011;43882;51.550;11.858;2022-07-01T12:01:30;15.00;;;4.68;;
58083;SDS011;43882;51.550;11.858;2022-07-01T12:03:58;14.48;;;4.65;;
58083;SDS011;43882;51.550;11.858;2022-07-01T12:06:25;15.13;;;4.75;;
58083;SDS011;43882;51.550;11.858;2022-07-01T12:08:52;15.43;;;4.97;;
58083;SDS011;43882;51.550;11.858;2022-07-01T12:11:18;15.77;;;4.93;;
58083;SDS011;43882;51.550;11.858;2022-07-01T12:13:46;16.10;;;5.22;;
58083;SDS011;43882;51.550;11.858;2022-07-01T12:16:13;14.18;;;4.78;;
58083;SDS011;43882;51.550;11.858;2022-07-01T12:18:39;15.30;;;5.25;;
58083;SDS011;43882;51.550;11.858;2022-07-01T12:21:05;15.98;;;5.47;;
58083;SDS011;43882;51.550;11.858;2022-07-01T12:23:31;16.55;;;5.82;;
58083;SDS011;43882;51.550;11.858;2022-07-01T12:26:03;16.70;;;5.68;;
58083;SDS011;43882;51.550;11.858;2022-07-01T12:28:37;16.35;;;5.57;;
58083;SDS011;43882;51.550;11.858;2022-07-01T12:31:07;16.73;;;5.95;;
58083;SDS011;43882;51.550;11.858;2022-07-01T12:33:37;17.45;;;6.03;;
58083;SDS011;43882;51.550;11.858;2022-07-01T12:36:04;18.45;;;6.70;;
58083;SDS011;43882;51.550;11.858;2022-07-01T12:38:30;18.92;;;6.95;;
58083;SDS011;43882;51.550;11.858;2022-07-01T12:40:57;18.50;;;6.95;;
58083;SDS011;43882;51.550;11.858;2022-07-01T12:43:27;19.45;;;7.78;;
58083;SDS011;43882;51.550;11.858;2022-07-01T12:45:55;18.30;;;7.05;;
58083;SDS011;43882;51.550;11.858;2022-07-01T12:48:21;20.83;;;8.02;;
58083;SDS011;43882;51.550;11.858;2022-07-01T12:50:47;22.23;;;8.68;;
58083;SDS011;43882;51.550;11.858;2022-07-01T12:53:20;20.08;;;7.88;;
58083;SDS011;43882;51.550;11.858;2022-07-01T12:55:50;20.30;;;8.18;;
58083;SDS011;43882;51.550;11.858;2022-07-01T12:58:18;19.60;;;7.72;;
58083;SDS011;43882;51.550;11.858;2022-07-01T13:00:45;20.45;;;8.00;;
58083;SDS011;43882;51.550;11.858;2022-07-01T13:03:11;19.38;;;7.68;;
58083;SDS011;43882;51.550;11.858;2022-07-01T13:05:38;19.88;;;7.55;;
58083;SDS011;43882;51.550;11.858;2022-07-01T13:08:07;20.77;;;7.30;;
58083;SDS011;43882;51.550;11.858;2022-07-01T13:10:34;19.60;;;7.28;;
58083;SDS011;43882;51.550;11.858;2022-07-01T13:13:00;20.25;;;8.05;;
58083;SDS011;43882;51.550;11.858;2022-07-01T13:15:26;20.48;;;7.40;;
58083;SDS011;43882;51.550;11.858;2022-07-01T13:17:52;19.48;;;7.93;;
58083;SDS011;43882;51.550;11.858;2022-07-01T13:20:18;20.20;;;7.32;;
58083;SDS011;43882;51.550;11.858;2022-07-01T13:22:44;20.23;;;7.88;;
58083;SDS011;43882;51.550;11.858;2022-07-01T13:25:11;19.98;;;7.57;;
58083;SDS011;43882;51.550;11.858;2022-07-01T13:27:37;18.75;;;7.60;;
58083;SDS011;43882;51.550;11.858;2022-07-01T13:30:04;20.75;;;8.52;;
58083;SDS011;43882;51.550;11.858;2022-07-01T13:32:30;19.13;;;7.38;;
58083;SDS011;43882;51.550;11.858;2022-07-01T13:34:56;20.73;;;8.82;;
58083;SDS011;43882;51.550;11.858;2022-07-01T13:37:22;21.88;;;8.77;;
58083;SDS011;43882;51.550;11.858;2022-07-01T13:39:48;21.13;;;8.27;;
58083;SDS011;43882;51.550;11.858;2022-07-01T13:42:14;19.75;;;8.18;;
58083;SDS011;43882;51.550;11.858;2022-07-01T13:44:40;19.42;;;8.23;;
58083;SDS011;43882;51.550;11.858;2022-07-01T13:47:06;22.75;;;8.65;;
58083;SDS011;43882;51.550;11.858;2022-07-01T13:49:35;21.02;;;8.45;;
58083;SDS011;43882;51.550;11.858;2022-07-01T13:52:01;19.38;;;7.95;;
58083;SDS011;43882;51.550;11.858;2022-07-01T13:54:27;19.50;;;7.70;;
58083;SDS011;43882;51.550;11.858;2022-07-01T13:56:53;18.30;;;7.60;;
58083;SDS011;43882;51.550;11.858;2022-07-01T13:59:19;20.13;;;8.63;;
58083;SDS011;43882;51.550;11.858;2022-07-01T14:01:44;20.42;;;7.97;;
58083;SDS011;43882;51.550;11.858;2022-07-01T14:04:11;19.60;;;8.13;;
58083;SDS011;43882;51.550;11.858;2022-07-01T14:06:37;19.27;;;7.85;;
58083;SDS011;43882;51.550;11.858;2022-07-01T14:09:03;19.85;;;8.23;;
58083;SDS011;43882;51.550;11.858;2022-07-01T14:11:29;19.40;;;7.53;;
58083;SDS011;43882;51.550;11.858;2022-07-01T14:13:55;21.27;;;8.23;;
58083;SDS011;43882;51.550;11.858;2022-07-01T14:16:21;21.10;;;8.25;;
58083;SDS011;43882;51.550;11.858;2022-07-01T14:18:47;23.73;;;8.15;;
58083;SDS011;43882;51.550;11.858;2022-07-01T14:21:13;20.15;;;7.75;;
58083;SDS011;43882;51.550;11.858;2022-07-01T14:23:39;19.50;;;7.95;;
58083;SDS011;43882;51.550;11.858;2022-07-01T14:26:05;19.90;;;7.90;;
58083;SDS011;43882;51.550;11.858;2022-07-01T14:28:31;20.40;;;7.60;;
58083;SDS011;43882;51.550;11.858;2022-07-01T14:30:57;19.85;;;7.90;;
58083;SDS011;43882;51.550;11.858;2022-07-01T14:33:23;21.30;;;7.60;;
58083;SDS011;43882;51.550;11.858;2022-07-01T14:35:49;18.40;;;7.80;;
58083;SDS011;43882;51.550;11.858;2022-07-01T14:38:16;22.00;;;8.38;;
58083;SDS011;43882;51.550;11.858;2022-07-01T14:40:42;19.15;;;7.40;;
58083;SDS011;43882;51.550;11.858;2022-07-01T14:43:08;20.27;;;7.35;;
58083;SDS011;43882;51.550;11.858;2022-07-01T14:45:34;19.88;;;7.72;;
58083;SDS011;43882;51.550;11.858;2022-07-01T14:48:00;19.35;;;7.45;;